Time;durP1;ratioP1;P1;durP2;ratioP2;P2;SDS_P1;SDS_P2;PMS_P1;PMS_P2;Temp;Humidity;BMP_temperature;BMP_pressure;BME280_temperature;BME280_humidity;BME280_pressure;Samples;Min_cycle;Max_cycle;Signal;HPM_P1;HPM_P2
2022/11/13 00:01:35;;;;;;;;;;;;;;;12.31;54.82;102180.97;4980318;28;127330;-64
2022/11/13 00:04:01;;;;;;;;;;;;;;;12.31;54.72;102184.50;4976910;28;116109;-64
2022/11/13 00:06:27;;;;;;;;;;;;;;;12.32;54.63;102177.19;4980683;28;98707;-64
2022/11/13 00:08:54;;;;;;;;;;;;;;;12.31;54.46;102173.66;4980726;28;98843;-66
2022/11/13 00:11:20;;;;;;;;;;;;;;;12.32;54.74;102180.72;4979766;28;98448;-64
2022/11/13 00:13:46;;;;;;;;;;;;;;;12.33;54.58;102176.13;4980966;28;118208;-64
2022/11/13 00:16:14;;;;;;;;;;;;;;;12.33;55.09;102173.41;4958379;28;112618;-66
2022/11/13 00:18:40;;;;;;;;;;;;;;;12.33;54.80;102182.34;4978012;28;98838;-66
2022/11/13 00:21:16;;;;;;;;;;;;;;;12.34;54.58;102175.06;4980970;28;98768;-64
2022/11/13 00:23:42;;;;;;;;;;;;;;;12.35;54.54;102168.63;4980508;28;116225;-64
2022/11/13 00:26:13;;;;;;;;;;;;;;;12.35;54.84;102168.63;4979648;28;125633;-66
2022/11/13 00:28:38;;;;;;;;;;;;;;;12.36;54.81;102167.56;4962130;28;97968;-67
2022/11/13 00:31:05;;;;;;;;;;;;;;;12.36;54.74;102171.06;4947139;28;127349;-64
2022/11/13 00:33:31;;;;;;;;;;;;;;;12.37;54.79;102167.31;4967265;28;98888;-66
2022/11/13 00:36:24;;;;;;;;;;;;;;;12.38;54.64;102162.72;4980752;28;103062;-65
2022/11/13 00:38:50;;;;;;;;;;;;;;;12.38;54.94;102166.25;4974586;28;126029;-66
2022/11/13 00:41:16;;;;;;;;;;;;;;;12.39;54.74;102158.97;4978856;28;99547;-64
2022/11/13 00:43:42;;;;;;;;;;;;;;;12.39;54.57;102161.66;4973031;28;116789;-64
2022/11/13 00:46:08;;;;;;;;;;;;;;;12.39;54.54;102154.38;4980174;28;125947;-64
2022/11/13 00:48:34;;;;;;;;;;;;;;;12.38;54.71;102155.44;4975759;28;128947;-66
2022/11/13 00:51:00;;;;;;;;;;;;;;;12.40;54.81;102155.19;4978894;28;128574;-64
2022/11/13 00:53:26;;;;;;;;;;;;;;;12.39;54.61;102157.06;4980712;28;115703;-64
2022/11/13 00:55:51;;;;;;;;;;;;;;;12.40;54.72;102144.38;4979316;28;129483;-66
2022/11/13 00:58:17;;;;;;;;;;;;;;;12.41;54.83;102146.00;4977904;28;127390;-66
2022/11/13 01:00:44;;;;;;;;;;;;;;;12.40;54.56;102147.91;4961475;28;128029;-66
2022/11/13 01:03:10;;;;;;;;;;;;;;;12.40;54.85;102144.38;4980140;28;118598;-64
2022/11/13 01:05:38;;;;;;;;;;;;;;;12.41;54.55;102136.00;4957337;28;97805;-66
2022/11/13 01:08:04;;;;;;;;;;;;;;;12.41;54.72;102135.19;4963862;28;98566;-66
2022/11/13 01:10:30;;;;;;;;;;;;;;;12.42;54.47;102134.16;4977524;28;123373;-64
2022/11/13 01:12:56;;;;;;;;;;;;;;;12.41;54.70;102119.78;4978152;28;117104;-66
2022/11/13 01:15:22;;;;;;;;;;;;;;;12.41;54.63;102122.50;4980584;27;127200;-67
2022/11/13 01:17:48;;;;;;;;;;;;;;;12.41;54.85;102118.97;4979988;28;127944;-66
2022/11/13 01:20:14;;;;;;;;;;;;;;;12.42;54.66;102120.63;4979939;28;98416;-64
2022/11/13 01:22:40;;;;;;;;;;;;;;;12.41;54.56;102119.78;4978602;28;117941;-64
2022/11/13 01:25:06;;;;;;;;;;;;;;;12.42;54.66;102117.94;4959877;28;126298;-67
2022/11/13 01:27:34;;;;;;;;;;;;;;;12.42;54.61;102112.53;4963644;28;127260;-67
2022/11/13 01:30:00;;;;;;;;;;;;;;;12.42;54.59;102115.22;4960211;27;127956;-67
2022/11/13 01:32:26;;;;;;;;;;;;;;;12.42;54.64;102118.75;4980180;28;119992;-67
2022/11/13 01:34:51;;;;;;;;;;;;;;;12.42;54.75;102120.63;4980079;28;127871;-67
2022/11/13 01:37:17;;;;;;;;;;;;;;;12.42;54.60;102112.53;4978390;28;127441;-64
2022/11/13 01:39:43;;;;;;;;;;;;;;;12.43;54.81;102116.88;4976150;28;128065;-64
2022/11/13 01:42:09;;;;;;;;;;;;;;;12.42;54.58;102107.13;4979726;28;115566;-66
2022/11/13 01:45:03;;;;;;;;;;;;;;;12.42;54.73;102110.63;4944907;28;127746;-64
2022/11/13 01:47:29;;;;;;;;;;;;;;;12.43;54.62;102112.28;4979640;28;98564;-67
2022/11/13 01:49:56;;;;;;;;;;;;;;;12.43;54.61;102116.88;4959205;28;125827;-67
2022/11/13 01:52:27;;;;;;;;;;;;;;;12.43;54.79;102106.03;4950571;28;104415;-66
2022/11/13 01:54:56;;;;;;;;;;;;;;;12.42;54.69;102107.94;4965071;28;125788;-63
2022/11/13 01:57:21;;;;;;;;;;;;;;;12.42;54.69;102109.81;4950577;28;98912;-66
2022/11/13 01:59:53;;;;;;;;;;;;;;;12.43;54.50;102109.56;4970595;28;126143;-66
2022/11/13 02:02:19;;;;;;;;;;;;;;;12.42;54.87;102102.53;4982669;28;117559;-67
2022/11/13 02:04:45;;;;;;;;;;;;;;;12.41;54.87;102100.03;4982580;28;121945;-66
2022/11/13 02:07:13;;;;;;;;;;;;;;;12.41;54.57;102106.25;4963788;28;122660;-64
2022/11/13 02:09:44;;;;;;;;;;;;;;;12.41;55.02;102102.75;4963185;28;97910;-66
2022/11/13 02:12:11;;;;;;;;;;;;;;;12.41;54.69;102103.56;4964602;28;97881;-67
2022/11/13 02:14:41;;;;;;;;;;;;;;;12.42;54.91;102101.69;4981986;27;98396;-67
2022/11/13 02:17:08;;;;;;;;;;;;;;;12.40;54.64;102096.50;4962012;28;103000;-64
2022/11/13 02:19:40;;;;;;;;;;;;;;;12.42;54.62;102096.28;4949657;28;98026;-66
2022/11/13 02:22:16;;;;;;;;;;;;;;;12.41;54.93;102091.94;4979468;28;114649;-64
2022/11/13 02:24:43;;;;;;;;;;;;;;;12.40;54.69;102080.28;4979365;27;103398;-66
2022/11/13 02:27:20;;;;;;;;;;;;;;;12.39;54.78;102084.06;4946115;28;98916;-64
2022/11/13 02:29:46;;;;;;;;;;;;;;;12.38;54.63;102078.88;4949923;28;99024;-66
2022/11/13 02:32:11;;;;;;;;;;;;;;;12.38;54.80;102073.47;4981830;28;116454;-64
2022/11/13 02:34:37;;;;;;;;;;;;;;;12.36;54.45;102083.72;4982794;28;128437;-63
2022/11/13 02:37:03;;;;;;;;;;;;;;;12.34;54.83;102083.97;4982143;28;126174;-66
2022/11/13 02:39:30;;;;;;;;;;;;;;;12.33;54.88;102078.78;4980039;28;127864;-64
2022/11/13 02:41:55;;;;;;;;;;;;;;;12.32;54.82;102071.75;4983727;28;98043;-63
2022/11/13 02:44:21;;;;;;;;;;;;;;;12.31;54.81;102070.94;4979878;28;127775;-66
2022/11/13 02:46:47;;;;;;;;;;;;;;;12.31;54.73;102064.69;4981637;28;127253;-64
2022/11/13 02:49:13;;;;;;;;;;;;;;;12.29;54.81;102063.03;4981144;27;128341;-67
2022/11/13 02:51:39;;;;;;;;;;;;;;;12.28;54.71;102074.91;4980670;28;117658;-66
2022/11/13 02:54:05;;;;;;;;;;;;;;;12.27;54.64;102058.94;4979439;28;108481;-64
2022/11/13 02:56:31;;;;;;;;;;;;;;;12.25;55.00;102067.28;4980601;28;127528;-64
2022/11/13 02:58:57;;;;;;;;;;;;;;;12.25;54.66;102063.75;4983304;28;98245;-64
2022/11/13 03:01:23;;;;;;;;;;;;;;;12.24;54.71;102064.84;4980430;27;118662;-66
2022/11/13 03:03:49;;;;;;;;;;;;;;;12.23;54.63;102065.91;4977689;28;126881;-63
2022/11/13 03:06:15;;;;;;;;;;;;;;;12.22;54.67;102058.81;4976614;28;127929;-66
2022/11/13 03:08:40;;;;;;;;;;;;;;;12.20;54.83;102053.66;4967043;28;127566;-66
2022/11/13 03:11:08;;;;;;;;;;;;;;;12.21;54.70;102059.91;4980102;27;115933;-64
2022/11/13 03:13:34;;;;;;;;;;;;;;;12.20;54.75;102056.38;4977941;28;100168;-64
2022/11/13 03:16:07;;;;;;;;;;;;;;;12.19;54.94;102051.22;4964155;28;98697;-66
2022/11/13 03:18:33;;;;;;;;;;;;;;;12.19;54.65;102056.63;4979954;28;127541;-66
2022/11/13 03:21:10;;;;;;;;;;;;;;;12.18;54.89;102052.25;4979267;28;117056;-66
2022/11/13 03:23:36;;;;;;;;;;;;;;;12.17;54.75;102043.34;4979278;28;98375;-64
2022/11/13 03:26:04;;;;;;;;;;;;;;;12.16;54.70;102040.88;4983012;27;98912;-64
2022/11/13 03:28:30;;;;;;;;;;;;;;;12.15;54.76;102044.66;4981095;28;99816;-64
2022/11/13 03:30:55;;;;;;;;;;;;;;;12.14;54.77;102049.22;4981675;28;119025;-66
2022/11/13 03:33:21;;;;;;;;;;;;;;;12.13;54.91;102036.75;4977865;28;127892;-66
2022/11/13 03:35:47;;;;;;;;;;;;;;;12.11;54.69;102040.78;4981286;28;127399;-63
2022/11/13 03:38:13;;;;;;;;;;;;;;;12.11;54.77;102043.50;4980134;28;102339;-66
2022/11/13 03:40:40;;;;;;;;;;;;;;;12.10;54.71;102044.53;4979520;28;117043;-64
2022/11/13 03:43:06;;;;;;;;;;;;;;;12.09;54.84;102032.91;4974680;28;114883;-63
2022/11/13 03:45:32;;;;;;;;;;;;;;;12.09;54.81;102032.91;4979739;28;128144;-67
2022/11/13 03:47:58;;;;;;;;;;;;;;;12.08;54.91;102036.66;4979488;28;124544;-64
2022/11/13 03:50:24;;;;;;;;;;;;;;;12.06;54.93;102030.66;4979041;28;116399;-64
2022/11/13 03:52:51;;;;;;;;;;;;;;;12.07;54.67;102023.41;4979957;28;127904;-66
2022/11/13 03:55:16;;;;;;;;;;;;;;;12.06;54.90;102029.84;4977744;28;125051;-64
2022/11/13 03:57:42;;;;;;;;;;;;;;;12.04;54.68;102022.00;4979635;28;127560;-64
2022/11/13 04:00:09;;;;;;;;;;;;;;;12.03;54.69;102021.19;4960799;28;117052;-64
2022/11/13 04:02:35;;;;;;;;;;;;;;;12.02;54.43;102024.09;4980339;28;122810;-66
2022/11/13 04:05:01;;;;;;;;;;;;;;;12.01;55.03;102022.47;4978534;28;128756;-66
2022/11/13 04:07:27;;;;;;;;;;;;;;;12.01;54.94;102025.16;4963260;28;127022;-64
2022/11/13 04:09:53;;;;;;;;;;;;;;;12.00;54.63;102012.72;4981123;28;117518;-64
2022/11/13 04:12:18;;;;;;;;;;;;;;;11.98;54.68;102023.75;4980531;28;128459;-63
2022/11/13 04:14:44;;;;;;;;;;;;;;;11.98;54.84;102012.94;4980043;28;128326;-66
2022/11/13 04:17:10;;;;;;;;;;;;;;;11.96;54.68;102015.06;4979484;28;126268;-65
2022/11/13 04:19:36;;;;;;;;;;;;;;;11.96;54.95;102017.78;4977461;28;115267;-63
2022/11/13 04:22:02;;;;;;;;;;;;;;;11.95;54.54;102010.75;4979420;28;128273;-64
2022/11/13 04:24:28;;;;;;;;;;;;;;;11.94;54.89;102008.25;4958614;28;127731;-66
2022/11/13 04:26:54;;;;;;;;;;;;;;;11.92;54.75;102005.81;4980524;27;127728;-63
2022/11/13 04:29:20;;;;;;;;;;;;;;;11.91;54.84;102004.16;4969004;28;117001;-63
2022/11/13 04:31:46;;;;;;;;;;;;;;;11.90;54.73;102013.31;4979582;28;126084;-63
2022/11/13 04:34:12;;;;;;;;;;;;;;;11.90;54.75;102005.22;4979900;28;128445;-64
2022/11/13 04:36:38;;;;;;;;;;;;;;;11.90;54.91;102005.22;4977639;28;127617;-66
2022/11/13 04:39:03;;;;;;;;;;;;;;;11.91;54.75;102006.06;4976045;28;117773;-66
2022/11/13 04:44:14;;;;;;;;;;;;;;;11.89;54.94;102003.56;4978623;28;97997;-66
2022/11/13 04:46:40;;;;;;;;;;;;;;;11.89;54.68;102002.75;4978522;28;127060;-63
2022/11/13 04:49:06;;;;;;;;;;;;;;;11.88;54.82;101995.72;4979699;28;117004;-64
2022/11/13 04:51:32;;;;;;;;;;;;;;;11.87;54.72;101992.19;4972683;28;113360;-63
2022/11/13 04:53:58;;;;;;;;;;;;;;;11.88;54.78;101998.44;4979060;27;99066;-64
2022/11/13 04:56:24;;;;;;;;;;;;;;;11.88;54.84;101995.72;4963987;28;127676;-66
2022/11/13 04:58:49;;;;;;;;;;;;;;;11.88;54.71;101999.25;4979293;28;117631;-63
2022/11/13 05:01:15;;;;;;;;;;;;;;;11.88;54.74;101999.25;4979843;28;127278;-63
2022/11/13 05:03:41;;;;;;;;;;;;;;;11.88;54.94;101996.53;4980611;27;99640;-66
2022/11/13 05:06:08;;;;;;;;;;;;;;;11.88;54.70;101991.13;4976712;27;126165;-66
2022/11/13 05:08:34;;;;;;;;;;;;;;;11.88;54.73;101988.44;4979175;28;98268;-66
2022/11/13 05:11:00;;;;;;;;;;;;;;;11.89;54.68;101987.38;4978707;28;112818;-63
2022/11/13 05:13:26;;;;;;;;;;;;;;;11.90;54.74;101990.88;4978278;27;112374;-66
2022/11/13 05:16:02;;;;;;;;;;;;;;;11.91;54.96;101992.56;4961006;27;121190;-66
2022/11/13 05:18:28;;;;;;;;;;;;;;;11.90;54.67;101989.00;4954250;28;98039;-66
2022/11/13 05:20:53;;;;;;;;;;;;;;;11.92;54.92;101988.78;4977518;28;128994;-64
2022/11/13 05:23:19;;;;;;;;;;;;;;;11.93;54.80;101995.81;4978597;27;127091;-66
2022/11/13 05:25:45;;;;;;;;;;;;;;;11.92;54.82;101980.69;4983776;28;127331;-64
2022/11/13 05:28:11;;;;;;;;;;;;;;;11.94;54.80;101986.63;4980409;28;115327;-66
2022/11/13 05:30:37;;;;;;;;;;;;;;;11.95;54.74;101982.91;4981644;28;127887;-62
2022/11/13 05:33:03;;;;;;;;;;;;;;;11.95;54.62;101986.41;4962644;28;130626;-63
2022/11/13 05:35:29;;;;;;;;;;;;;;;11.96;54.77;101979.94;4981250;28;118244;-66
2022/11/13 05:37:55;;;;;;;;;;;;;;;11.97;54.83;101984.28;4978138;28;117901;-63
2022/11/13 05:40:21;;;;;;;;;;;;;;;11.97;54.61;101987.00;4963638;28;128335;-66
2022/11/13 05:42:47;;;;;;;;;;;;;;;11.99;54.67;101989.47;4965505;28;127067;-67
2022/11/13 05:45:13;;;;;;;;;;;;;;;12.00;54.79;101985.69;4980874;28;127377;-63
2022/11/13 05:47:38;;;;;;;;;;;;;;;12.00;54.79;101991.09;4980056;28;116644;-63
2022/11/13 05:50:05;;;;;;;;;;;;;;;12.03;54.62;101996.03;4968384;28;127598;-63
2022/11/13 05:52:31;;;;;;;;;;;;;;;12.03;54.86;101991.44;4952525;28;120917;-63
2022/11/13 05:54:57;;;;;;;;;;;;;;;12.04;54.85;101984.16;4961216;28;125891;-63
2022/11/13 05:57:22;;;;;;;;;;;;;;;12.04;55.04;101993.06;4961269;28;117846;-66
2022/11/13 05:59:48;;;;;;;;;;;;;;;12.04;54.95;101995.78;4959607;28;128172;-66
2022/11/13 06:02:14;;;;;;;;;;;;;;;12.06;54.68;101986.59;4954130;28;125223;-66
2022/11/13 06:04:40;;;;;;;;;;;;;;;12.06;54.65;101984.72;4963825;28;98325;-66
2022/11/13 06:07:06;;;;;;;;;;;;;;;12.06;54.77;101978.50;4961448;28;106721;-67
2022/11/13 06:09:32;;;;;;;;;;;;;;;12.08;54.74;101976.38;4929574;28;128419;-66
2022/11/13 06:11:58;;;;;;;;;;;;;;;12.08;54.69;101973.69;4944889;28;127323;-66
2022/11/13 06:14:24;;;;;;;;;;;;;;;12.08;54.63;101971.81;4961900;28;127596;-66
2022/11/13 06:16:50;;;;;;;;;;;;;;;12.10;54.87;101971.53;4963761;28;97973;-66
2022/11/13 06:19:16;;;;;;;;;;;;;;;12.10;54.80;101976.94;4959996;28;128655;-66
2022/11/13 06:21:42;;;;;;;;;;;;;;;12.09;54.84;101968.03;4961215;28;129088;-66
2022/11/13 06:24:09;;;;;;;;;;;;;;;12.11;54.78;101954.28;4947209;28;127758;-66
2022/11/13 06:26:35;;;;;;;;;;;;;;;12.10;54.59;101955.31;4966867;28;97994;-66
2022/11/13 06:29:02;;;;;;;;;;;;;;;12.11;54.82;101960.50;4964833;28;98980;-66
2022/11/13 06:31:29;;;;;;;;;;;;;;;12.12;54.76;101967.56;4961628;28;120817;-66
2022/11/13 06:33:57;;;;;;;;;;;;;;;12.14;54.80;101968.13;4964124;28;98280;-66
2022/11/13 06:36:28;;;;;;;;;;;;;;;12.15;54.76;101968.97;4968217;28;97792;-66
2022/11/13 06:38:54;;;;;;;;;;;;;;;12.15;54.58;101977.88;4945242;28;100857;-66
2022/11/13 06:41:22;;;;;;;;;;;;;;;12.16;54.75;101966.00;4930782;28;128786;-66
2022/11/13 06:43:48;;;;;;;;;;;;;;;12.16;54.74;101971.41;4963845;28;98222;-66
2022/11/13 06:46:18;;;;;;;;;;;;;;;12.18;54.68;101974.72;4965250;28;118522;-66
2022/11/13 06:48:44;;;;;;;;;;;;;;;12.20;54.65;101980.69;4945011;28;98706;-66
2022/11/13 06:51:18;;;;;;;;;;;;;;;12.21;54.61;101978.78;4960553;28;127074;-66
2022/11/13 06:53:44;;;;;;;;;;;;;;;12.22;54.55;101972.31;4955868;28;117542;-66
2022/11/13 06:56:10;;;;;;;;;;;;;;;12.26;54.53;101973.47;4956595;28;117467;-66
2022/11/13 06:58:36;;;;;;;;;;;;;;;12.26;54.53;101968.91;4941576;28;128509;-63
2022/11/13 07:01:10;;;;;;;;;;;;;;;12.28;54.82;101964.06;4956761;28;129239;-63
2022/11/13 07:03:36;;;;;;;;;;;;;;;12.32;54.72;101969.00;4960127;28;121382;-66
2022/11/13 07:06:06;;;;;;;;;;;;;;;12.33;54.59;101962.53;4958401;28;105163;-63
2022/11/13 07:08:32;;;;;;;;;;;;;;;12.37;54.65;101967.19;4924459;28;117056;-63
2022/11/13 07:10:58;;;;;;;;;;;;;;;12.39;54.33;101959.66;4959978;28;109171;-63
2022/11/13 07:13:24;;;;;;;;;;;;;;;12.42;54.36;101961.91;4949063;28;98109;-66
2022/11/13 07:15:50;;;;;;;;;;;;;;;12.44;54.26;101967.06;4954687;28;100467;-66
2022/11/13 07:18:16;;;;;;;;;;;;;;;12.49;54.31;101975.25;4956477;28;123209;-65
2022/11/13 07:20:42;;;;;;;;;;;;;;;12.51;54.38;101963.13;4938667;28;99141;-66
2022/11/13 07:23:08;;;;;;;;;;;;;;;12.52;54.31;101969.34;4950324;28;128220;-63
2022/11/13 07:25:34;;;;;;;;;;;;;;;12.55;54.41;101962.66;4957006;28;117775;-67
2022/11/13 07:28:00;;;;;;;;;;;;;;;12.57;54.55;101961.31;4958892;28;98954;-66
2022/11/13 07:30:26;;;;;;;;;;;;;;;12.61;54.30;101964.34;4960476;28;109294;-63
2022/11/13 07:32:52;;;;;;;;;;;;;;;12.63;54.40;101964.94;4959976;28;127628;-63
2022/11/13 07:35:18;;;;;;;;;;;;;;;12.64;54.28;101975.50;4956101;28;118350;-63
2022/11/13 07:37:44;;;;;;;;;;;;;;;12.67;54.56;101982.34;4959097;28;98629;-66
2022/11/13 07:40:10;;;;;;;;;;;;;;;12.71;54.50;101983.47;4953336;28;128545;-66
2022/11/13 07:42:36;;;;;;;;;;;;;;;12.74;54.51;101977.59;4946375;28;97967;-63
2022/11/13 07:45:03;;;;;;;;;;;;;;;12.76;54.47;101980.84;4955635;28;117383;-63
2022/11/13 07:47:29;;;;;;;;;;;;;;;12.76;54.42;101975.44;4957280;28;119139;-66
2022/11/13 07:49:55;;;;;;;;;;;;;;;12.79;54.19;101977.66;4966099;28;124397;-64
2022/11/13 07:52:21;;;;;;;;;;;;;;;12.85;54.58;101975.84;4976103;28;98174;-63
2022/11/13 07:54:46;;;;;;;;;;;;;;;12.87;54.21;101965.59;4978056;27;99226;-66
2022/11/13 07:57:13;;;;;;;;;;;;;;;12.89;54.14;101966.16;4960703;28;114755;-64
2022/11/13 07:59:39;;;;;;;;;;;;;;;12.95;54.37;101970.59;4977819;27;103791;-63
2022/11/13 08:02:05;;;;;;;;;;;;;;;12.99;54.10;101977.97;4975455;27;127861;-63
2022/11/13 08:04:31;;;;;;;;;;;;;;;13.05;53.98;101968.06;4976035;28;100357;-66
2022/11/13 08:06:57;;;;;;;;;;;;;;;13.09;54.08;101968.41;4978738;27;98380;-62
2022/11/13 08:09:22;;;;;;;;;;;;;;;13.17;53.92;101978.81;4975218;28;127103;-63
2022/11/13 08:11:48;;;;;;;;;;;;;;;13.26;53.97;101971.91;4975923;28;127477;-66
2022/11/13 08:14:14;;;;;;;;;;;;;;;13.34;53.83;101965.25;4977432;28;117168;-62
2022/11/13 08:16:40;;;;;;;;;;;;;;;13.54;53.46;101965.53;4976952;27;126990;-63
2022/11/13 08:19:06;;;;;;;;;;;;;;;13.67;53.63;101970.56;4975908;27;128523;-66
2022/11/13 08:21:33;;;;;;;;;;;;;;;13.74;53.76;101968.50;4972894;28;127516;-66
2022/11/13 08:23:59;;;;;;;;;;;;;;;13.96;53.28;101959.56;4958641;28;97935;-62
2022/11/13 08:26:25;;;;;;;;;;;;;;;14.28;53.09;101966.94;4977295;28;128254;-63
2022/11/13 08:28:51;;;;;;;;;;;;;;;14.64;52.64;101959.97;4976202;28;126866;-63
2022/11/13 08:31:17;;;;;;;;;;;;;;;14.85;52.62;101953.63;4975185;28;126769;-63
2022/11/13 08:33:43;;;;;;;;;;;;;;;14.98;52.48;101950.47;4975914;27;117113;-63
2022/11/13 08:36:09;;;;;;;;;;;;;;;15.11;52.54;101948.38;4954956;28;98309;-63
2022/11/13 08:38:35;;;;;;;;;;;;;;;15.29;52.40;101956.09;4976916;28;126264;-66
2022/11/13 08:41:02;;;;;;;;;;;;;;;15.24;52.65;101950.63;4975240;28;127476;-66
2022/11/13 08:43:27;;;;;;;;;;;;;;;15.19;53.01;101951.41;4977067;27;98157;-66
2022/11/13 08:45:54;;;;;;;;;;;;;;;15.23;53.04;101941.66;4956213;28;127401;-63
2022/11/13 08:48:20;;;;;;;;;;;;;;;15.23;52.86;101949.00;4939726;28;99582;-63
2022/11/13 08:50:49;;;;;;;;;;;;;;;15.23;53.26;101954.44;4977399;28;98076;-65
2022/11/13 08:53:15;;;;;;;;;;;;;;;15.38;52.85;101951.00;4956935;28;116696;-66
2022/11/13 08:55:41;;;;;;;;;;;;;;;15.70;52.37;101938.13;4976517;28;126271;-63
2022/11/13 08:58:08;;;;;;;;;;;;;;;15.92;52.31;101937.94;4975956;28;115643;-63
2022/11/13 09:00:34;;;;;;;;;;;;;;;15.92;52.46;101931.69;4958693;28;125217;-64
2022/11/13 09:03:00;;;;;;;;;;;;;;;16.07;52.54;101928.16;4976444;28;117093;-63
2022/11/13 09:05:26;;;;;;;;;;;;;;;15.99;52.70;101940.38;4977438;28;100325;-66
2022/11/13 09:07:57;;;;;;;;;;;;;;;15.90;52.91;101926.50;4976213;28;127988;-63
2022/11/13 09:10:24;;;;;;;;;;;;;;;16.11;52.62;101937.41;4974888;27;123173;-64
2022/11/13 09:12:56;;;;;;;;;;;;;;;16.17;52.38;101931.72;4976471;28;98067;-64
2022/11/13 09:15:22;;;;;;;;;;;;;;;16.52;52.18;101930.13;4976935;28;99177;-63
2022/11/13 09:17:48;;;;;;;;;;;;;;;16.89;51.86;101931.75;4971279;28;128210;-66
2022/11/13 09:20:14;;;;;;;;;;;;;;;17.32;51.51;101922.13;4974927;27;126893;-66
2022/11/13 09:22:40;;;;;;;;;;;;;;;17.73;51.30;101923.88;4976698;28;113568;-67
2022/11/13 09:25:07;;;;;;;;;;;;;;;17.94;51.14;101925.44;4977022;28;128118;-64
2022/11/13 09:27:33;;;;;;;;;;;;;;;18.20;51.12;101925.28;4977556;28;106824;-64
2022/11/13 09:29:58;;;;;;;;;;;;;;;18.30;51.53;101925.19;4978139;27;127862;-64
2022/11/13 09:32:24;;;;;;;;;;;;;;;18.48;51.42;101926.44;4976453;27;116787;-64
2022/11/13 09:34:50;;;;;;;;;;;;;;;18.82;51.04;101927.25;4976785;27;98591;-66
2022/11/13 09:37:16;;;;;;;;;;;;;;;19.04;51.00;101920.47;4974966;28;123034;-67
2022/11/13 09:39:42;;;;;;;;;;;;;;;19.10;51.10;101922.06;4976442;28;98175;-67
2022/11/13 09:42:17;;;;;;;;;;;;;;;19.35;50.77;101929.97;4978568;27;97897;-64
2022/11/13 09:44:54;;;;;;;;;;;;;;;19.49;50.98;101921.88;4961981;28;99037;-64
2022/11/13 09:47:29;;;;;;;;;;;;;;;19.49;51.28;101921.88;4976467;28;98652;-67
2022/11/13 09:50:09;;;;;;;;;;;;;;;19.49;51.31;101919.16;4940628;28;124060;-64
2022/11/13 09:52:36;;;;;;;;;;;;;;;19.51;51.32;101921.59;4976965;28;98790;-67
2022/11/13 09:55:03;;;;;;;;;;;;;;;19.39;51.56;101919.25;4974578;28;127880;-64
2022/11/13 09:57:40;;;;;;;;;;;;;;;19.45;51.63;101911.81;4942778;28;99300;-67
2022/11/13 10:00:12;;;;;;;;;;;;;;;19.25;51.87;101913.66;4940779;28;126832;-67
2022/11/13 10:02:57;;;;;;;;;;;;;;;19.08;52.37;101905.94;4974838;27;97992;-64
2022/11/13 10:05:35;;;;;;;;;;;;;;;18.95;52.25;101903.09;4958364;28;98840;-64
2022/11/13 10:08:25;;;;;;;;;;;;;;;18.85;52.31;101902.06;4976218;28;128870;-67
2022/11/13 10:11:01;;;;;;;;;;;;;;;18.76;52.55;101903.00;4963106;28;98064;-66
2022/11/13 10:13:33;;;;;;;;;;;;;;;18.64;52.63;101895.16;4959906;28;98492;-65
2022/11/13 10:16:38;;;;;;;;;;;;;;;18.55;52.83;101886.78;4966599;28;98355;-65
2022/11/13 10:19:15;;;;;;;;;;;;;;;18.47;52.88;101892.88;4879794;28;99608;-66
2022/11/13 10:21:49;;;;;;;;;;;;;;;18.40;52.97;101890.47;4964980;28;98461;-67
2022/11/13 10:24:17;;;;;;;;;;;;;;;18.35;52.87;101887.78;4978556;28;117667;-64
2022/11/13 10:26:43;;;;;;;;;;;;;;;18.32;52.88;101874.69;4958607;28;101289;-64
2022/11/13 10:29:17;;;;;;;;;;;;;;;18.29;53.04;101872.53;4977069;28;128020;-67
2022/11/13 10:31:45;;;;;;;;;;;;;;;18.28;52.84;101868.19;4977099;28;127534;-64
2022/11/13 10:34:11;;;;;;;;;;;;;;;18.28;52.96;101864.63;4979821;27;98173;-64
2022/11/13 10:36:48;;;;;;;;;;;;;;;18.29;53.02;101858.88;4962350;28;98324;-64
2022/11/13 10:39:14;;;;;;;;;;;;;;;18.32;52.74;101860.25;4980946;27;98034;-65
2022/11/13 10:41:47;;;;;;;;;;;;;;;18.34;52.95;101861.56;4979073;28;126803;-64
2022/11/13 10:44:32;;;;;;;;;;;;;;;18.37;52.76;101860.19;4980146;28;98326;-67
2022/11/13 10:47:16;;;;;;;;;;;;;;;18.40;52.64;101860.44;4980503;28;98126;-64
2022/11/13 10:49:42;;;;;;;;;;;;;;;18.48;52.71;101855.47;4979633;28;107479;-64
2022/11/13 10:52:18;;;;;;;;;;;;;;;18.58;52.53;101856.16;4978024;28;128400;-64
2022/11/13 10:54:44;;;;;;;;;;;;;;;18.69;52.57;101848.69;4958388;28;98464;-67
2022/11/13 10:57:29;;;;;;;;;;;;;;;18.78;52.47;101848.88;4976600;28;98780;-64
2022/11/13 10:59:55;;;;;;;;;;;;;;;18.83;52.51;101852.41;4962614;28;98725;-67
2022/11/13 11:02:22;;;;;;;;;;;;;;;18.86;52.48;101843.63;4979467;27;98644;-67
2022/11/13 11:04:48;;;;;;;;;;;;;;;18.87;52.49;101847.97;4959665;28;97984;-67
2022/11/13 11:07:21;;;;;;;;;;;;;;;18.85;52.63;101843.91;4978339;27;128232;-67
2022/11/13 11:09:47;;;;;;;;;;;;;;;18.81;52.79;101838.19;4962565;28;108985;-67
2022/11/13 11:12:21;;;;;;;;;;;;;;;18.77;52.71;101836.34;4945527;28;98596;-65
2022/11/13 11:14:56;;;;;;;;;;;;;;;18.71;52.94;101832.88;4963019;28;98441;-64
2022/11/13 11:17:43;;;;;;;;;;;;;;;18.61;52.97;101830.19;4979962;28;98348;-66
2022/11/13 11:20:21;;;;;;;;;;;;;;;18.51;53.11;101827.56;4926983;28;98598;-67
2022/11/13 11:22:49;;;;;;;;;;;;;;;18.37;53.35;101830.97;4979371;27;97962;-64
2022/11/13 11:25:32;;;;;;;;;;;;;;;18.20;53.50;101827.84;4960440;28;98321;-64
2022/11/13 11:28:11;;;;;;;;;;;;;;;18.09;53.49;101824.41;4963138;28;126735;-67
2022/11/13 11:30:46;;;;;;;;;;;;;;;17.99;53.51;101820.91;4960174;28;116135;-67
2022/11/13 11:33:33;;;;;;;;;;;;;;;17.88;53.67;101825.63;4943318;28;125404;-64
2022/11/13 11:36:07;;;;;;;;;;;;;;;17.76;53.99;101820.53;4942902;28;118570;-63
2022/11/13 11:39:00;;;;;;;;;;;;;;;17.67;53.71;101817.56;4963664;28;98563;-64
2022/11/13 11:41:56;;;;;;;;;;;;;;;17.59;53.89;101811.91;4960957;28;99400;-64
2022/11/13 11:44:29;;;;;;;;;;;;;;;17.49;53.90;101801.88;4963741;27;98289;-64
2022/11/13 11:46:55;;;;;;;;;;;;;;;17.41;54.04;101811.47;4943169;28;118938;-64
2022/11/13 11:49:22;;;;;;;;;;;;;;;17.35;54.15;101803.59;4976969;27;122325;-67
2022/11/13 11:52:16;;;;;;;;;;;;;;;17.28;53.96;101801.16;4953072;28;127955;-67
2022/11/13 11:54:56;;;;;;;;;;;;;;;17.20;54.09;101798.19;4963389;28;98450;-64
2022/11/13 11:58:08;;;;;;;;;;;;;;;17.13;54.19;101798.50;4964878;28;117734;-64
2022/11/13 12:00:34;;;;;;;;;;;;;;;17.05;54.19;101785.47;4956925;28;121513;-67
2022/11/13 12:03:28;;;;;;;;;;;;;;;17.01;54.12;101784.38;4959167;28;128424;-66
2022/11/13 12:06:00;;;;;;;;;;;;;;;16.94;54.26;101776.53;4958820;27;98106;-64
2022/11/13 12:09:06;;;;;;;;;;;;;;;16.89;54.10;101776.53;4979049;28;98242;-67
2022/11/13 12:11:38;;;;;;;;;;;;;;;16.83;54.19;101767.59;4957675;28;98540;-64
2022/11/13 12:14:15;;;;;;;;;;;;;;;16.79;54.17;101758.34;4960593;28;121274;-66
2022/11/13 12:17:06;;;;;;;;;;;;;;;16.75;54.10;101760.00;4959158;28;101597;-67
2022/11/13 12:19:53;;;;;;;;;;;;;;;16.72;54.07;101754.25;4973885;28;97918;-63
2022/11/13 12:22:45;;;;;;;;;;;;;;;16.65;54.20;101749.91;4976524;28;98990;-63
2022/11/13 12:25:23;;;;;;;;;;;;;;;16.62;54.24;101744.19;4978470;28;99111;-64
2022/11/13 12:27:58;;;;;;;;;;;;;;;16.56;54.16;101740.69;4942456;28;117947;-63
2022/11/13 12:31:03;;;;;;;;;;;;;;;16.54;54.15;101740.13;4958318;28;108303;-63
2022/11/13 12:33:35;;;;;;;;;;;;;;;16.51;54.07;101745.34;4934067;27;98270;-63
2022/11/13 12:36:01;;;;;;;;;;;;;;;16.46;54.11;101746.16;4980206;27;98562;-66
2022/11/13 12:38:34;;;;;;;;;;;;;;;16.43;54.17;101742.09;4959709;28;98381;-63
2022/11/13 12:41:05;;;;;;;;;;;;;;;16.38;54.14;101735.81;4947633;28;98075;-63
2022/11/13 12:43:40;;;;;;;;;;;;;;;16.37;54.27;101742.38;4962418;28;98424;-66